sensor_id;sensor_type;location;lat;lon;timestamp;P1;durP1;ratioP1;P2;durP2;ratioP2
15693;SDS011;7947;48.834;9.132;2023-01-28T00:01:12;3.63;;;2.67;;
15693;SDS011;7947;48.834;9.132;2023-01-28T00:04:21;4.87;;;3.07;;
15693;SDS011;7947;48.834;9.132;2023-01-28T00:07:23;7.10;;;3.07;;
15693;SDS011;7947;48.834;9.132;2023-01-28T00:10:27;4.47;;;2.77;;
15693;SDS011;7947;48.834;9.132;2023-01-28T00:13:30;4.30;;;3.00;;
15693;SDS011;7947;48.834;9.132;2023-01-28T00:16:34;4.70;;;3.27;;
15693;SDS011;7947;48.834;9.132;2023-01-28T00:19:38;6.27;;;2.90;;
15693;SDS011;7947;48.834;9.132;2023-01-28T00:22:45;3.83;;;2.60;;
15693;SDS011;7947;48.834;9.132;2023-01-28T00:25:52;4.07;;;2.97;;
15693;SDS011;7947;48.834;9.132;2023-01-28T00:28:56;6.50;;;3.20;;
15693;SDS011;7947;48.834;9.132;2023-01-28T00:31:58;3.50;;;2.50;;
15693;SDS011;7947;48.834;9.132;2023-01-28T00:35:03;4.80;;;2.93;;
15693;SDS011;7947;48.834;9.132;2023-01-28T00:38:06;3.90;;;2.47;;
15693;SDS011;7947;48.834;9.132;2023-01-28T00:41:09;4.17;;;2.60;;
15693;SDS011;7947;48.834;9.132;2023-01-28T00:44:13;4.80;;;3.00;;
15693;SDS011;7947;48.834;9.132;2023-01-28T00:47:17;4.37;;;2.83;;
15693;SDS011;7947;48.834;9.132;2023-01-28T00:50:23;4.70;;;2.70;;
15693;SDS011;7947;48.834;9.132;2023-01-28T00:53:26;3.73;;;2.90;;
15693;SDS011;7947;48.834;9.132;2023-01-28T00:56:29;4.67;;;2.87;;
15693;SDS011;7947;48.834;9.132;2023-01-28T00:59:32;7.03;;;2.60;;
15693;SDS011;7947;48.834;9.132;2023-01-28T01:02:35;4.37;;;3.03;;
15693;SDS011;7947;48.834;9.132;2023-01-28T01:05:41;4.03;;;2.67;;
15693;SDS011;7947;48.834;9.132;2023-01-28T01:08:44;3.93;;;2.90;;
15693;SDS011;7947;48.834;9.132;2023-01-28T01:11:51;4.13;;;2.53;;
15693;SDS011;7947;48.834;9.132;2023-01-28T01:14:54;2.70;;;2.10;;
15693;SDS011;7947;48.834;9.132;2023-01-28T01:17:57;3.23;;;2.10;;
15693;SDS011;7947;48.834;9.132;2023-01-28T01:21:02;4.50;;;2.57;;
15693;SDS011;7947;48.834;9.132;2023-01-28T01:24:10;3.67;;;2.20;;
15693;SDS011;7947;48.834;9.132;2023-01-28T01:27:13;3.40;;;2.13;;
15693;SDS011;7947;48.834;9.132;2023-01-28T01:30:16;2.90;;;2.20;;
15693;SDS011;7947;48.834;9.132;2023-01-28T01:33:19;3.67;;;2.47;;
15693;SDS011;7947;48.834;9.132;2023-01-28T01:36:23;2.60;;;1.87;;
15693;SDS011;7947;48.834;9.132;2023-01-28T01:39:26;2.93;;;2.10;;
15693;SDS011;7947;48.834;9.132;2023-01-28T01:42:29;5.07;;;2.07;;
15693;SDS011;7947;48.834;9.132;2023-01-28T01:45:33;2.93;;;2.10;;
15693;SDS011;7947;48.834;9.132;2023-01-28T01:48:36;3.07;;;2.00;;
15693;SDS011;7947;48.834;9.132;2023-01-28T01:51:41;3.33;;;2.10;;
15693;SDS011;7947;48.834;9.132;2023-01-28T01:54:48;2.80;;;2.17;;
15693;SDS011;7947;48.834;9.132;2023-01-28T01:57:56;4.03;;;2.13;;
15693;SDS011;7947;48.834;9.132;2023-01-28T02:01:03;2.83;;;2.10;;
15693;SDS011;7947;48.834;9.132;2023-01-28T02:04:08;2.90;;;2.20;;
15693;SDS011;7947;48.834;9.132;2023-01-28T02:07:16;3.47;;;1.63;;
15693;SDS011;7947;48.834;9.132;2023-01-28T02:10:21;4.43;;;2.40;;
15693;SDS011;7947;48.834;9.132;2023-01-28T02:13:25;3.20;;;2.03;;
15693;SDS011;7947;48.834;9.132;2023-01-28T02:16:31;4.50;;;2.40;;
15693;SDS011;7947;48.834;9.132;2023-01-28T02:19:35;3.57;;;2.03;;
15693;SDS011;7947;48.834;9.132;2023-01-28T02:26:43;3.23;;;2.03;;
15693;SDS011;7947;48.834;9.132;2023-01-28T02:30:00;2.60;;;1.87;;
15693;SDS011;7947;48.834;9.132;2023-01-28T02:33:09;3.30;;;2.10;;
15693;SDS011;7947;48.834;9.132;2023-01-28T02:36:22;3.40;;;2.30;;
15693;SDS011;7947;48.834;9.132;2023-01-28T02:39:31;3.53;;;1.93;;
15693;SDS011;7947;48.834;9.132;2023-01-28T02:42:37;3.77;;;2.67;;
15693;SDS011;7947;48.834;9.132;2023-01-28T02:45:42;4.00;;;2.33;;
15693;SDS011;7947;48.834;9.132;2023-01-28T02:49:04;3.13;;;2.00;;
15693;SDS011;7947;48.834;9.132;2023-01-28T02:52:13;2.90;;;2.13;;
15693;SDS011;7947;48.834;9.132;2023-01-28T02:55:45;3.97;;;2.33;;
15693;SDS011;7947;48.834;9.132;2023-01-28T02:58:57;3.83;;;2.20;;
15693;SDS011;7947;48.834;9.132;2023-01-28T03:02:27;3.63;;;2.77;;
15693;SDS011;7947;48.834;9.132;2023-01-28T03:05:37;3.53;;;1.90;;
15693;SDS011;7947;48.834;9.132;2023-01-28T03:09:04;3.00;;;1.93;;
15693;SDS011;7947;48.834;9.132;2023-01-28T03:12:27;2.77;;;1.90;;
15693;SDS011;7947;48.834;9.132;2023-01-28T03:15:49;2.60;;;2.20;;
15693;SDS011;7947;48.834;9.132;2023-01-28T03:19:11;2.43;;;1.83;;
15693;SDS011;7947;48.834;9.132;2023-01-28T03:22:33;4.53;;;2.70;;
15693;SDS011;7947;48.834;9.132;2023-01-28T03:25:59;3.23;;;2.33;;
15693;SDS011;7947;48.834;9.132;2023-01-28T03:29:22;3.13;;;2.47;;
15693;SDS011;7947;48.834;9.132;2023-01-28T03:32:44;3.80;;;2.63;;
15693;SDS011;7947;48.834;9.132;2023-01-28T03:36:07;5.53;;;2.73;;
15693;SDS011;7947;48.834;9.132;2023-01-28T03:39:29;3.70;;;2.80;;
15693;SDS011;7947;48.834;9.132;2023-01-28T03:42:32;5.30;;;3.80;;
15693;SDS011;7947;48.834;9.132;2023-01-28T03:45:35;4.17;;;2.77;;
15693;SDS011;7947;48.834;9.132;2023-01-28T03:48:39;6.40;;;3.93;;
15693;SDS011;7947;48.834;9.132;2023-01-28T03:51:43;4.73;;;3.40;;
15693;SDS011;7947;48.834;9.132;2023-01-28T03:54:46;4.67;;;3.10;;
15693;SDS011;7947;48.834;9.132;2023-01-28T03:57:50;6.87;;;3.87;;
15693;SDS011;7947;48.834;9.132;2023-01-28T04:00:52;6.40;;;4.03;;
15693;SDS011;7947;48.834;9.132;2023-01-28T04:03:55;4.83;;;3.23;;
15693;SDS011;7947;48.834;9.132;2023-01-28T04:07:00;5.50;;;3.23;;
15693;SDS011;7947;48.834;9.132;2023-01-28T04:10:03;5.13;;;3.70;;
15693;SDS011;7947;48.834;9.132;2023-01-28T04:13:07;7.30;;;4.30;;
15693;SDS011;7947;48.834;9.132;2023-01-28T04:16:14;5.87;;;3.80;;
15693;SDS011;7947;48.834;9.132;2023-01-28T04:19:19;5.67;;;3.47;;
15693;SDS011;7947;48.834;9.132;2023-01-28T04:22:24;5.87;;;3.80;;
15693;SDS011;7947;48.834;9.132;2023-01-28T04:25:27;5.23;;;3.63;;
15693;SDS011;7947;48.834;9.132;2023-01-28T04:28:30;4.87;;;3.33;;
15693;SDS011;7947;48.834;9.132;2023-01-28T04:31:33;6.17;;;4.13;;
15693;SDS011;7947;48.834;9.132;2023-01-28T04:34:36;6.80;;;4.03;;
15693;SDS011;7947;48.834;9.132;2023-01-28T04:37:41;5.53;;;3.67;;
15693;SDS011;7947;48.834;9.132;2023-01-28T04:40:47;5.07;;;3.47;;
15693;SDS011;7947;48.834;9.132;2023-01-28T04:43:51;5.50;;;3.90;;
15693;SDS011;7947;48.834;9.132;2023-01-28T04:46:53;4.23;;;3.27;;
15693;SDS011;7947;48.834;9.132;2023-01-28T04:49:56;6.23;;;3.47;;
15693;SDS011;7947;48.834;9.132;2023-01-28T04:53:00;4.47;;;3.17;;
15693;SDS011;7947;48.834;9.132;2023-01-28T04:56:03;5.77;;;4.00;;
15693;SDS011;7947;48.834;9.132;2023-01-28T04:59:06;5.30;;;3.40;;
15693;SDS011;7947;48.834;9.132;2023-01-28T05:02:09;4.50;;;3.40;;
15693;SDS011;7947;48.834;9.132;2023-01-28T05:05:12;6.90;;;3.80;;
15693;SDS011;7947;48.834;9.132;2023-01-28T05:08:16;5.73;;;4.00;;
15693;SDS011;7947;48.834;9.132;2023-01-28T05:11:19;5.70;;;3.20;;
15693;SDS011;7947;48.834;9.132;2023-01-28T05:14:22;4.63;;;3.33;;
15693;SDS011;7947;48.834;9.132;2023-01-28T05:17:25;6.07;;;3.63;;
15693;SDS011;7947;48.834;9.132;2023-01-28T05:20:27;4.77;;;3.20;;
15693;SDS011;7947;48.834;9.132;2023-01-28T05:23:32;6.17;;;4.07;;
15693;SDS011;7947;48.834;9.132;2023-01-28T05:26:34;4.87;;;3.13;;
15693;SDS011;7947;48.834;9.132;2023-01-28T05:29:37;5.97;;;3.30;;
15693;SDS011;7947;48.834;9.132;2023-01-28T05:32:40;7.77;;;3.27;;
15693;SDS011;7947;48.834;9.132;2023-01-28T05:35:43;5.10;;;2.97;;
15693;SDS011;7947;48.834;9.132;2023-01-28T05:38:47;4.77;;;3.13;;
15693;SDS011;7947;48.834;9.132;2023-01-28T05:41:50;4.47;;;3.07;;
15693;SDS011;7947;48.834;9.132;2023-01-28T05:44:52;4.90;;;3.60;;
15693;SDS011;7947;48.834;9.132;2023-01-28T05:47:55;5.03;;;3.33;;
15693;SDS011;7947;48.834;9.132;2023-01-28T05:50:58;5.97;;;3.47;;
15693;SDS011;7947;48.834;9.132;2023-01-28T05:54:03;5.57;;;3.47;;
15693;SDS011;7947;48.834;9.132;2023-01-28T05:57:06;4.67;;;3.03;;
15693;SDS011;7947;48.834;9.132;2023-01-28T06:00:09;4.40;;;3.20;;
15693;SDS011;7947;48.834;9.132;2023-01-28T06:03:13;5.10;;;3.30;;
15693;SDS011;7947;48.834;9.132;2023-01-28T06:06:16;4.70;;;3.43;;
15693;SDS011;7947;48.834;9.132;2023-01-28T06:09:20;7.30;;;3.23;;
15693;SDS011;7947;48.834;9.132;2023-01-28T06:12:23;5.73;;;3.43;;
15693;SDS011;7947;48.834;9.132;2023-01-28T06:15:25;6.10;;;3.80;;
15693;SDS011;7947;48.834;9.132;2023-01-28T06:18:28;4.30;;;3.17;;
15693;SDS011;7947;48.834;9.132;2023-01-28T06:21:31;6.77;;;3.67;;
15693;SDS011;7947;48.834;9.132;2023-01-28T06:24:35;5.20;;;3.33;;
15693;SDS011;7947;48.834;9.132;2023-01-28T06:27:38;7.13;;;3.13;;
15693;SDS011;7947;48.834;9.132;2023-01-28T06:30:41;5.83;;;3.53;;
15693;SDS011;7947;48.834;9.132;2023-01-28T06:33:44;5.87;;;3.60;;
15693;SDS011;7947;48.834;9.132;2023-01-28T06:36:47;6.87;;;3.97;;
15693;SDS011;7947;48.834;9.132;2023-01-28T06:39:52;6.73;;;3.60;;
15693;SDS011;7947;48.834;9.132;2023-01-28T06:42:55;6.37;;;3.93;;
15693;SDS011;7947;48.834;9.132;2023-01-28T06:45:57;5.83;;;3.50;;
15693;SDS011;7947;48.834;9.132;2023-01-28T06:49:00;6.57;;;3.90;;
15693;SDS011;7947;48.834;9.132;2023-01-28T06:52:03;6.90;;;3.50;;
15693;SDS011;7947;48.834;9.132;2023-01-28T06:55:08;5.70;;;3.80;;
15693;SDS011;7947;48.834;9.132;2023-01-28T06:58:11;6.50;;;4.00;;
15693;SDS011;7947;48.834;9.132;2023-01-28T07:01:13;7.17;;;3.50;;
15693;SDS011;7947;48.834;9.132;2023-01-28T07:04:16;5.67;;;3.47;;
15693;SDS011;7947;48.834;9.132;2023-01-28T07:07:19;5.97;;;3.67;;
15693;SDS011;7947;48.834;9.132;2023-01-28T07:10:25;5.60;;;3.53;;
15693;SDS011;7947;48.834;9.132;2023-01-28T07:13:32;6.13;;;3.70;;
15693;SDS011;7947;48.834;9.132;2023-01-28T07:16:47;5.27;;;3.33;;
15693;SDS011;7947;48.834;9.132;2023-01-28T07:19:50;4.80;;;3.30;;
15693;SDS011;7947;48.834;9.132;2023-01-28T07:22:53;7.87;;;4.33;;
15693;SDS011;7947;48.834;9.132;2023-01-28T07:26:00;4.93;;;3.40;;
15693;SDS011;7947;48.834;9.132;2023-01-28T07:29:03;6.30;;;3.57;;
15693;SDS011;7947;48.834;9.132;2023-01-28T07:32:06;5.20;;;4.07;;
15693;SDS011;7947;48.834;9.132;2023-01-28T07:35:08;8.07;;;4.27;;
15693;SDS011;7947;48.834;9.132;2023-01-28T07:38:12;5.93;;;3.90;;
15693;SDS011;7947;48.834;9.132;2023-01-28T07:41:16;5.50;;;3.97;;
15693;SDS011;7947;48.834;9.132;2023-01-28T07:44:19;9.13;;;4.50;;
15693;SDS011;7947;48.834;9.132;2023-01-28T07:47:26;6.77;;;4.40;;
15693;SDS011;7947;48.834;9.132;2023-01-28T07:50:35;5.90;;;4.27;;
15693;SDS011;7947;48.834;9.132;2023-01-28T07:53:44;7.57;;;4.20;;
15693;SDS011;7947;48.834;9.132;2023-01-28T07:56:55;5.57;;;3.90;;
15693;SDS011;7947;48.834;9.132;2023-01-28T08:00:04;7.33;;;3.90;;
15693;SDS011;7947;48.834;9.132;2023-01-28T08:03:15;6.80;;;4.23;;
15693;SDS011;7947;48.834;9.132;2023-01-28T08:06:27;5.50;;;3.97;;
15693;SDS011;7947;48.834;9.132;2023-01-28T08:09:40;6.57;;;4.13;;
15693;SDS011;7947;48.834;9.132;2023-01-28T08:12:54;8.60;;;4.63;;
15693;SDS011;7947;48.834;9.132;2023-01-28T08:16:04;7.20;;;4.40;;
15693;SDS011;7947;48.834;9.132;2023-01-28T08:19:17;5.60;;;4.63;;
15693;SDS011;7947;48.834;9.132;2023-01-28T08:22:26;8.10;;;3.57;;
15693;SDS011;7947;48.834;9.132;2023-01-28T08:25:42;4.97;;;3.87;;
15693;SDS011;7947;48.834;9.132;2023-01-28T08:29:26;6.83;;;4.37;;
15693;SDS011;7947;48.834;9.132;2023-01-28T08:33:02;6.63;;;4.37;;
15693;SDS011;7947;48.834;9.132;2023-01-28T08:36:29;8.10;;;5.00;;
15693;SDS011;7947;48.834;9.132;2023-01-28T08:39:42;8.77;;;4.60;;
15693;SDS011;7947;48.834;9.132;2023-01-28T08:42:56;6.20;;;4.27;;
15693;SDS011;7947;48.834;9.132;2023-01-28T08:46:10;8.53;;;5.17;;
15693;SDS011;7947;48.834;9.132;2023-01-28T08:49:21;6.87;;;4.67;;
15693;SDS011;7947;48.834;9.132;2023-01-28T08:52:31;7.20;;;4.57;;
15693;SDS011;7947;48.834;9.132;2023-01-28T08:55:38;8.07;;;4.97;;
15693;SDS011;7947;48.834;9.132;2023-01-28T08:58:47;8.33;;;5.23;;
15693;SDS011;7947;48.834;9.132;2023-01-28T09:01:58;8.63;;;5.77;;
15693;SDS011;7947;48.834;9.132;2023-01-28T09:05:05;8.60;;;5.10;;
15693;SDS011;7947;48.834;9.132;2023-01-28T09:08:17;7.50;;;4.97;;
15693;SDS011;7947;48.834;9.132;2023-01-28T09:11:38;7.30;;;5.37;;
15693;SDS011;7947;48.834;9.132;2023-01-28T09:14:45;8.13;;;5.43;;
15693;SDS011;7947;48.834;9.132;2023-01-28T09:17:57;9.87;;;5.90;;
15693;SDS011;7947;48.834;9.132;2023-01-28T09:21:09;8.67;;;5.93;;
15693;SDS011;7947;48.834;9.132;2023-01-28T09:24:14;7.97;;;4.87;;
15693;SDS011;7947;48.834;9.132;2023-01-28T09:27:23;9.90;;;5.57;;
15693;SDS011;7947;48.834;9.132;2023-01-28T09:30:36;9.77;;;5.77;;
15693;SDS011;7947;48.834;9.132;2023-01-28T09:33:46;7.97;;;5.43;;
15693;SDS011;7947;48.834;9.132;2023-01-28T09:36:57;9.77;;;5.57;;
15693;SDS011;7947;48.834;9.132;2023-01-28T09:40:03;10.30;;;5.90;;
15693;SDS011;7947;48.834;9.132;2023-01-28T09:43:15;7.77;;;5.43;;
15693;SDS011;7947;48.834;9.132;2023-01-28T09:46:36;10.40;;;5.07;;
15693;SDS011;7947;48.834;9.132;2023-01-28T09:49:46;9.50;;;5.87;;
15693;SDS011;7947;48.834;9.132;2023-01-28T09:52:54;9.97;;;6.00;;
15693;SDS011;7947;48.834;9.132;2023-01-28T09:56:11;9.30;;;6.13;;
15693;SDS011;7947;48.834;9.132;2023-01-28T09:59:24;9.67;;;6.33;;
15693;SDS011;7947;48.834;9.132;2023-01-28T10:02:36;9.17;;;6.13;;
15693;SDS011;7947;48.834;9.132;2023-01-28T10:05:55;9.17;;;6.50;;
15693;SDS011;7947;48.834;9.132;2023-01-28T10:09:16;7.23;;;5.57;;
15693;SDS011;7947;48.834;9.132;2023-01-28T10:15:59;8.43;;;5.63;;
15693;SDS011;7947;48.834;9.132;2023-01-28T10:19:14;10.10;;;6.43;;
15693;SDS011;7947;48.834;9.132;2023-01-28T10:22:22;12.90;;;6.47;;
15693;SDS011;7947;48.834;9.132;2023-01-28T10:25:28;11.07;;;6.07;;
15693;SDS011;7947;48.834;9.132;2023-01-28T10:28:33;10.67;;;6.07;;
15693;SDS011;7947;48.834;9.132;2023-01-28T10:31:39;10.03;;;6.63;;
15693;SDS011;7947;48.834;9.132;2023-01-28T10:34:46;10.20;;;5.70;;
15693;SDS011;7947;48.834;9.132;2023-01-28T10:37:50;10.77;;;6.40;;
15693;SDS011;7947;48.834;9.132;2023-01-28T10:40:59;9.80;;;5.97;;
15693;SDS011;7947;48.834;9.132;2023-01-28T10:44:03;10.07;;;6.37;;
15693;SDS011;7947;48.834;9.132;2023-01-28T10:47:09;9.43;;;5.90;;
15693;SDS011;7947;48.834;9.132;2023-01-28T10:50:16;10.77;;;5.77;;
15693;SDS011;7947;48.834;9.132;2023-01-28T10:53:33;10.63;;;5.93;;
15693;SDS011;7947;48.834;9.132;2023-01-28T10:56:38;9.40;;;6.07;;
15693;SDS011;7947;48.834;9.132;2023-01-28T10:59:45;9.97;;;6.43;;
15693;SDS011;7947;48.834;9.132;2023-01-28T11:02:50;11.03;;;6.87;;
15693;SDS011;7947;48.834;9.132;2023-01-28T11:05:54;12.63;;;6.87;;
15693;SDS011;7947;48.834;9.132;2023-01-28T11:08:59;9.53;;;6.57;;
15693;SDS011;7947;48.834;9.132;2023-01-28T11:12:10;10.80;;;6.43;;
15693;SDS011;7947;48.834;9.132;2023-01-28T11:15:16;9.27;;;6.03;;
15693;SDS011;7947;48.834;9.132;2023-01-28T11:18:20;8.90;;;6.60;;
15693;SDS011;7947;48.834;9.132;2023-01-28T11:21:29;11.37;;;6.37;;
15693;SDS011;7947;48.834;9.132;2023-01-28T11:24:35;11.97;;;6.73;;
15693;SDS011;7947;48.834;9.132;2023-01-28T11:27:38;13.57;;;6.73;;
15693;SDS011;7947;48.834;9.132;2023-01-28T11:30:41;9.70;;;6.60;;
15693;SDS011;7947;48.834;9.132;2023-01-28T11:33:45;10.20;;;5.93;;
15693;SDS011;7947;48.834;9.132;2023-01-28T11:36:52;11.83;;;6.17;;
15693;SDS011;7947;48.834;9.132;2023-01-28T11:40:02;8.93;;;5.87;;
15693;SDS011;7947;48.834;9.132;2023-01-28T11:43:22;12.23;;;6.37;;
15693;SDS011;7947;48.834;9.132;2023-01-28T11:46:42;10.87;;;6.73;;
15693;SDS011;7947;48.834;9.132;2023-01-28T11:49:59;12.73;;;6.90;;
15693;SDS011;7947;48.834;9.132;2023-01-28T11:53:26;12.57;;;6.50;;
15693;SDS011;7947;48.834;9.132;2023-01-28T11:56:52;11.87;;;6.77;;
15693;SDS011;7947;48.834;9.132;2023-01-28T12:00:17;14.27;;;7.23;;
15693;SDS011;7947;48.834;9.132;2023-01-28T12:03:40;11.30;;;6.40;;
15693;SDS011;7947;48.834;9.132;2023-01-28T12:06:57;13.37;;;6.63;;
15693;SDS011;7947;48.834;9.132;2023-01-28T12:10:17;11.33;;;6.30;;
15693;SDS011;7947;48.834;9.132;2023-01-28T12:13:30;9.80;;;5.97;;
15693;SDS011;7947;48.834;9.132;2023-01-28T12:16:46;10.83;;;6.50;;
15693;SDS011;7947;48.834;9.132;2023-01-28T12:20:02;10.87;;;6.27;;
15693;SDS011;7947;48.834;9.132;2023-01-28T12:23:21;11.07;;;7.07;;
15693;SDS011;7947;48.834;9.132;2023-01-28T12:26:35;17.07;;;9.27;;
15693;SDS011;7947;48.834;9.132;2023-01-28T12:29:50;13.30;;;7.23;;
15693;SDS011;7947;48.834;9.132;2023-01-28T12:33:05;8.87;;;5.97;;
15693;SDS011;7947;48.834;9.132;2023-01-28T12:36:34;10.33;;;5.63;;
15693;SDS011;7947;48.834;9.132;2023-01-28T12:39:51;7.23;;;4.80;;
15693;SDS011;7947;48.834;9.132;2023-01-28T12:43:08;9.10;;;5.50;;
15693;SDS011;7947;48.834;9.132;2023-01-28T12:46:24;8.10;;;5.50;;
15693;SDS011;7947;48.834;9.132;2023-01-28T12:49:34;8.53;;;4.83;;
15693;SDS011;7947;48.834;9.132;2023-01-28T12:52:41;11.23;;;4.87;;
15693;SDS011;7947;48.834;9.132;2023-01-28T12:55:50;6.27;;;4.27;;
15693;SDS011;7947;48.834;9.132;2023-01-28T12:58:59;8.27;;;4.83;;
15693;SDS011;7947;48.834;9.132;2023-01-28T13:02:14;8.47;;;5.10;;
15693;SDS011;7947;48.834;9.132;2023-01-28T13:05:24;8.93;;;5.10;;
15693;SDS011;7947;48.834;9.132;2023-01-28T13:08:34;7.23;;;4.63;;
15693;SDS011;7947;48.834;9.132;2023-01-28T13:11:37;7.23;;;4.80;;
15693;SDS011;7947;48.834;9.132;2023-01-28T13:14:41;7.30;;;4.57;;
15693;SDS011;7947;48.834;9.132;2023-01-28T13:17:57;8.40;;;5.33;;
15693;SDS011;7947;48.834;9.132;2023-01-28T13:21:01;11.33;;;5.27;;
15693;SDS011;7947;48.834;9.132;2023-01-28T13:24:18;6.57;;;4.33;;
15693;SDS011;7947;48.834;9.132;2023-01-28T13:27:24;6.00;;;4.00;;
15693;SDS011;7947;48.834;9.132;2023-01-28T13:30:29;8.10;;;4.40;;
15693;SDS011;7947;48.834;9.132;2023-01-28T13:33:34;8.00;;;4.57;;
15693;SDS011;7947;48.834;9.132;2023-01-28T13:36:42;6.83;;;4.53;;
15693;SDS011;7947;48.834;9.132;2023-01-28T13:39:47;8.63;;;4.90;;
15693;SDS011;7947;48.834;9.132;2023-01-28T13:42:59;6.17;;;4.60;;
15693;SDS011;7947;48.834;9.132;2023-01-28T13:46:04;10.07;;;4.93;;
15693;SDS011;7947;48.834;9.132;2023-01-28T13:49:12;7.83;;;4.60;;
15693;SDS011;7947;48.834;9.132;2023-01-28T13:52:22;8.20;;;5.00;;
15693;SDS011;7947;48.834;9.132;2023-01-28T13:55:29;6.70;;;4.03;;
15693;SDS011;7947;48.834;9.132;2023-01-28T14:02:29;9.70;;;4.70;;
15693;SDS011;7947;48.834;9.132;2023-01-28T14:13:04;7.97;;;4.63;;
15693;SDS011;7947;48.834;9.132;2023-01-28T14:16:30;5.93;;;4.53;;
15693;SDS011;7947;48.834;9.132;2023-01-28T14:19:42;6.27;;;4.33;;
15693;SDS011;7947;48.834;9.132;2023-01-28T14:22:46;7.37;;;4.17;;
15693;SDS011;7947;48.834;9.132;2023-01-28T14:25:54;6.47;;;4.40;;
15693;SDS011;7947;48.834;9.132;2023-01-28T14:29:15;6.63;;;4.10;;
15693;SDS011;7947;48.834;9.132;2023-01-28T14:32:25;6.30;;;3.77;;
15693;SDS011;7947;48.834;9.132;2023-01-28T14:35:31;6.07;;;4.20;;
15693;SDS011;7947;48.834;9.132;2023-01-28T14:38:37;6.07;;;4.23;;
15693;SDS011;7947;48.834;9.132;2023-01-28T14:41:45;5.97;;;3.97;;
15693;SDS011;7947;48.834;9.132;2023-01-28T14:44:52;5.10;;;3.73;;
15693;SDS011;7947;48.834;9.132;2023-01-28T14:48:07;7.17;;;4.60;;
15693;SDS011;7947;48.834;9.132;2023-01-28T14:51:36;5.17;;;3.87;;
15693;SDS011;7947;48.834;9.132;2023-01-28T14:54:51;4.43;;;3.60;;
15693;SDS011;7947;48.834;9.132;2023-01-28T14:58:10;5.23;;;3.47;;
15693;SDS011;7947;48.834;9.132;2023-01-28T15:01:19;6.43;;;4.10;;
15693;SDS011;7947;48.834;9.132;2023-01-28T15:04:24;5.77;;;4.20;;
15693;SDS011;7947;48.834;9.132;2023-01-28T15:07:28;6.73;;;3.93;;
15693;SDS011;7947;48.834;9.132;2023-01-28T15:10:31;4.87;;;3.33;;
15693;SDS011;7947;48.834;9.132;2023-01-28T15:13:40;6.27;;;3.53;;
15693;SDS011;7947;48.834;9.132;2023-01-28T15:16:46;7.10;;;4.13;;
15693;SDS011;7947;48.834;9.132;2023-01-28T15:19:50;5.17;;;3.30;;
15693;SDS011;7947;48.834;9.132;2023-01-28T15:22:56;4.27;;;2.90;;
15693;SDS011;7947;48.834;9.132;2023-01-28T15:26:03;4.50;;;3.07;;
15693;SDS011;7947;48.834;9.132;2023-01-28T15:29:20;5.20;;;3.60;;
15693;SDS011;7947;48.834;9.132;2023-01-28T15:32:26;6.20;;;3.73;;
15693;SDS011;7947;48.834;9.132;2023-01-28T15:35:30;4.73;;;3.50;;
15693;SDS011;7947;48.834;9.132;2023-01-28T15:38:34;7.03;;;3.70;;
15693;SDS011;7947;48.834;9.132;2023-01-28T15:41:39;6.10;;;3.43;;
15693;SDS011;7947;48.834;9.132;2023-01-28T15:44:49;4.33;;;2.90;;
15693;SDS011;7947;48.834;9.132;2023-01-28T15:48:00;4.30;;;3.17;;
15693;SDS011;7947;48.834;9.132;2023-01-28T15:51:06;5.90;;;3.17;;
15693;SDS011;7947;48.834;9.132;2023-01-28T15:54:11;4.47;;;3.07;;
15693;SDS011;7947;48.834;9.132;2023-01-28T15:57:16;4.30;;;2.93;;
15693;SDS011;7947;48.834;9.132;2023-01-28T16:00:22;5.40;;;3.40;;
15693;SDS011;7947;48.834;9.132;2023-01-28T16:03:27;5.27;;;3.50;;
15693;SDS011;7947;48.834;9.132;2023-01-28T16:06:30;3.43;;;2.50;;
15693;SDS011;7947;48.834;9.132;2023-01-28T16:09:36;4.03;;;2.87;;
15693;SDS011;7947;48.834;9.132;2023-01-28T16:12:39;4.13;;;3.17;;
15693;SDS011;7947;48.834;9.132;2023-01-28T16:15:45;4.77;;;2.90;;
15693;SDS011;7947;48.834;9.132;2023-01-28T16:18:51;4.60;;;2.73;;
15693;SDS011;7947;48.834;9.132;2023-01-28T16:21:56;3.83;;;2.93;;
15693;SDS011;7947;48.834;9.132;2023-01-28T16:24:59;3.20;;;2.40;;
15693;SDS011;7947;48.834;9.132;2023-01-28T16:28:04;4.20;;;3.07;;
15693;SDS011;7947;48.834;9.132;2023-01-28T16:31:19;4.87;;;3.30;;
15693;SDS011;7947;48.834;9.132;2023-01-28T16:34:25;5.03;;;3.03;;
15693;SDS011;7947;48.834;9.132;2023-01-28T16:37:29;4.07;;;3.40;;
15693;SDS011;7947;48.834;9.132;2023-01-28T16:40:32;5.10;;;3.57;;
15693;SDS011;7947;48.834;9.132;2023-01-28T16:43:36;4.73;;;3.40;;
15693;SDS011;7947;48.834;9.132;2023-01-28T16:46:40;4.90;;;3.17;;
15693;SDS011;7947;48.834;9.132;2023-01-28T16:49:45;5.20;;;2.90;;
15693;SDS011;7947;48.834;9.132;2023-01-28T16:52:48;5.07;;;3.17;;
15693;SDS011;7947;48.834;9.132;2023-01-28T16:55:53;4.27;;;3.07;;
15693;SDS011;7947;48.834;9.132;2023-01-28T16:58:56;4.47;;;3.27;;
15693;SDS011;7947;48.834;9.132;2023-01-28T17:02:01;4.97;;;3.40;;
15693;SDS011;7947;48.834;9.132;2023-01-28T17:05:04;4.33;;;3.00;;
15693;SDS011;7947;48.834;9.132;2023-01-28T17:08:08;5.07;;;3.40;;
15693;SDS011;7947;48.834;9.132;2023-01-28T17:11:11;4.17;;;3.03;;
15693;SDS011;7947;48.834;9.132;2023-01-28T17:14:15;4.70;;;3.27;;
15693;SDS011;7947;48.834;9.132;2023-01-28T17:17:19;4.40;;;3.27;;
15693;SDS011;7947;48.834;9.132;2023-01-28T17:20:22;3.77;;;2.60;;
15693;SDS011;7947;48.834;9.132;2023-01-28T17:23:24;4.93;;;3.30;;
15693;SDS011;7947;48.834;9.132;2023-01-28T17:26:27;4.30;;;3.00;;
15693;SDS011;7947;48.834;9.132;2023-01-28T17:29:30;4.80;;;2.87;;
15693;SDS011;7947;48.834;9.132;2023-01-28T17:32:34;3.93;;;2.50;;
15693;SDS011;7947;48.834;9.132;2023-01-28T17:35:37;4.47;;;2.80;;
15693;SDS011;7947;48.834;9.132;2023-01-28T17:38:43;4.57;;;3.20;;
15693;SDS011;7947;48.834;9.132;2023-01-28T17:41:46;3.80;;;2.73;;
15693;SDS011;7947;48.834;9.132;2023-01-28T17:44:52;3.83;;;2.83;;
15693;SDS011;7947;48.834;9.132;2023-01-28T17:47:56;4.70;;;3.10;;
15693;SDS011;7947;48.834;9.132;2023-01-28T17:50:59;3.83;;;2.80;;
15693;SDS011;7947;48.834;9.132;2023-01-28T17:54:02;4.57;;;2.80;;
15693;SDS011;7947;48.834;9.132;2023-01-28T17:57:05;3.87;;;3.13;;
15693;SDS011;7947;48.834;9.132;2023-01-28T18:00:08;3.30;;;2.50;;
15693;SDS011;7947;48.834;9.132;2023-01-28T18:03:14;3.77;;;3.17;;
15693;SDS011;7947;48.834;9.132;2023-01-28T18:06:17;4.40;;;3.23;;
15693;SDS011;7947;48.834;9.132;2023-01-28T18:09:21;3.33;;;3.03;;
15693;SDS011;7947;48.834;9.132;2023-01-28T18:12:24;4.30;;;2.87;;
15693;SDS011;7947;48.834;9.132;2023-01-28T18:15:27;4.63;;;3.53;;
15693;SDS011;7947;48.834;9.132;2023-01-28T18:18:31;6.30;;;3.63;;
15693;SDS011;7947;48.834;9.132;2023-01-28T18:21:35;3.40;;;2.80;;
15693;SDS011;7947;48.834;9.132;2023-01-28T18:24:53;5.13;;;3.00;;
15693;SDS011;7947;48.834;9.132;2023-01-28T18:27:56;3.87;;;2.77;;
15693;SDS011;7947;48.834;9.132;2023-01-28T18:31:03;3.40;;;2.90;;
15693;SDS011;7947;48.834;9.132;2023-01-28T18:34:08;3.47;;;2.47;;
15693;SDS011;7947;48.834;9.132;2023-01-28T18:37:11;5.00;;;3.63;;
15693;SDS011;7947;48.834;9.132;2023-01-28T18:40:14;5.83;;;3.77;;
15693;SDS011;7947;48.834;9.132;2023-01-28T18:43:17;4.93;;;3.37;;
15693;SDS011;7947;48.834;9.132;2023-01-28T18:46:20;5.30;;;3.73;;
15693;SDS011;7947;48.834;9.132;2023-01-28T18:49:24;4.37;;;3.10;;
15693;SDS011;7947;48.834;9.132;2023-01-28T18:52:27;5.27;;;3.57;;
15693;SDS011;7947;48.834;9.132;2023-01-28T18:55:29;5.90;;;3.93;;
15693;SDS011;7947;48.834;9.132;2023-01-28T18:58:33;6.07;;;4.13;;
15693;SDS011;7947;48.834;9.132;2023-01-28T19:01:35;4.97;;;3.50;;
15693;SDS011;7947;48.834;9.132;2023-01-28T19:04:40;7.27;;;3.83;;
15693;SDS011;7947;48.834;9.132;2023-01-28T19:07:43;5.43;;;4.27;;
15693;SDS011;7947;48.834;9.132;2023-01-28T19:10:53;5.17;;;3.93;;
15693;SDS011;7947;48.834;9.132;2023-01-28T19:13:56;4.67;;;3.50;;
15693;SDS011;7947;48.834;9.132;2023-01-28T19:16:59;5.33;;;3.73;;
15693;SDS011;7947;48.834;9.132;2023-01-28T19:20:03;5.47;;;3.80;;
15693;SDS011;7947;48.834;9.132;2023-01-28T19:23:07;4.43;;;3.23;;
15693;SDS011;7947;48.834;9.132;2023-01-28T19:26:12;4.53;;;3.20;;